createdAt,value
2022-09-26T00:01:15.314Z,9.95
2022-09-26T00:03:50.046Z,6.85
2022-09-26T00:06:18.098Z,8.30
2022-09-26T00:08:46.560Z,7.50
2022-09-26T00:11:16.473Z,8.00
2022-09-26T00:13:43.708Z,6.78
2022-09-26T00:16:11.979Z,8.35
2022-09-26T00:18:39.653Z,12.18
2022-09-26T00:21:12.200Z,7.30
2022-09-26T00:26:06.608Z,8.32
2022-09-26T00:28:33.518Z,7.40
2022-09-26T00:31:08.780Z,8.65
2022-09-26T00:33:35.972Z,7.63
2022-09-26T00:36:03.735Z,8.93
2022-09-26T00:38:30.921Z,7.82
2022-09-26T00:40:57.983Z,8.55
2022-09-26T00:43:26.862Z,8.63
2022-09-26T00:45:55.371Z,6.30
2022-09-26T00:48:22.689Z,6.80
2022-09-26T00:50:49.533Z,7.35
2022-09-26T00:53:19.839Z,7.82
2022-09-26T00:55:51.820Z,9.40
2022-09-26T00:58:30.190Z,9.43
2022-09-26T01:00:58.003Z,10.13
2022-09-26T01:03:25.697Z,12.77
2022-09-26T01:05:52.444Z,10.70
2022-09-26T01:08:25.422Z,11.63
2022-09-26T01:10:52.924Z,7.43
2022-09-26T01:13:21.909Z,10.88
2022-09-26T01:15:49.201Z,6.82
2022-09-26T01:18:15.858Z,7.93
2022-09-26T01:21:06.657Z,7.43
2022-09-26T01:23:51.797Z,6.97
2022-09-26T01:26:34.705Z,6.95
2022-09-26T01:29:22.870Z,8.27
2022-09-26T01:32:32.763Z,8.32
2022-09-26T01:35:22.401Z,6.53
2022-09-26T01:38:06.783Z,6.15
2022-09-26T01:40:43.528Z,7.10
2022-09-26T01:43:25.822Z,6.35
2022-09-26T01:46:19.458Z,6.95
2022-09-26T01:48:51.832Z,10.70
2022-09-26T01:51:30.216Z,9.85
2022-09-26T01:54:09.807Z,6.32
2022-09-26T01:56:39.575Z,6.90
2022-09-26T01:59:16.861Z,6.82
2022-09-26T02:01:46.176Z,6.85
2022-09-26T02:04:21.065Z,7.07
2022-09-26T02:07:19.881Z,8.80
2022-09-26T02:09:52.238Z,6.60
2022-09-26T02:12:24.526Z,5.90
2022-09-26T02:14:54.316Z,8.02
2022-09-26T02:17:28.428Z,8.43
2022-09-26T02:20:10.099Z,7.82
2022-09-26T02:22:37.343Z,7.32
2022-09-26T02:25:05.063Z,8.73
2022-09-26T02:27:31.857Z,6.82
2022-09-26T02:29:59.125Z,9.48
2022-09-26T02:32:29.744Z,5.90
2022-09-26T02:34:56.962Z,6.90
2022-09-26T02:37:24.407Z,5.78
2022-09-26T02:39:52.585Z,6.78
2022-09-26T02:42:44.167Z,7.13
2022-09-26T02:48:11.996Z,6.70
2022-09-26T02:50:49.572Z,6.80
2022-09-26T02:53:53.360Z,5.25
2022-09-26T02:56:55.348Z,7.10
2022-09-26T02:59:45.162Z,5.60
2022-09-26T03:02:23.731Z,4.97
2022-09-26T03:05:24.552Z,6.00
2022-09-26T03:08:07.687Z,5.05
2022-09-26T03:10:35.424Z,3.95
2022-09-26T03:13:06.619Z,7.38
2022-09-26T03:15:35.107Z,5.97
2022-09-26T03:18:06.309Z,6.63
2022-09-26T03:20:32.961Z,9.77
2022-09-26T03:22:59.924Z,5.85
2022-09-26T03:25:28.084Z,6.40
2022-09-26T03:27:55.417Z,5.90
2022-09-26T03:30:23.000Z,6.00
2022-09-26T03:32:50.037Z,7.85
2022-09-26T03:35:17.251Z,5.95
2022-09-26T03:37:43.936Z,8.43
2022-09-26T03:40:12.553Z,5.70
2022-09-26T03:42:39.669Z,9.45
2022-09-26T03:45:10.295Z,10.90
2022-09-26T03:47:41.860Z,8.27
2022-09-26T03:50:09.382Z,8.45
2022-09-26T03:52:36.590Z,8.60
2022-09-26T03:55:04.420Z,9.27
2022-09-26T03:57:31.093Z,11.23
2022-09-26T03:59:57.699Z,8.65
2022-09-26T04:02:24.531Z,7.47
2022-09-26T04:04:51.316Z,9.38
2022-09-26T04:07:17.946Z,8.48
2022-09-26T04:09:44.588Z,8.20
2022-09-26T04:12:11.275Z,7.22
2022-09-26T04:14:38.084Z,8.85
2022-09-26T04:17:04.893Z,10.40
2022-09-26T04:19:31.833Z,9.70
2022-09-26T04:21:58.933Z,9.02
2022-09-26T04:24:25.857Z,10.75
2022-09-26T04:26:52.602Z,9.40
2022-09-26T04:29:19.311Z,8.80
2022-09-26T04:31:46.208Z,10.93
2022-09-26T04:34:13.152Z,8.73
2022-09-26T04:36:39.799Z,10.63
2022-09-26T04:39:06.577Z,8.32
2022-09-26T04:41:33.521Z,11.82
2022-09-26T04:44:01.786Z,8.73
2022-09-26T04:46:31.054Z,8.32
2022-09-26T04:48:59.727Z,9.35
2022-09-26T04:51:28.781Z,7.72
2022-09-26T04:53:55.871Z,9.35
2022-09-26T04:56:25.241Z,7.88
2022-09-26T04:58:54.613Z,9.75
2022-09-26T05:01:21.809Z,7.90
2022-09-26T05:03:48.912Z,6.90
2022-09-26T05:06:17.566Z,8.85
2022-09-26T05:08:48.443Z,10.80
2022-09-26T05:11:17.160Z,9.77
2022-09-26T05:13:44.821Z,8.48
2022-09-26T05:16:14.533Z,10.07
2022-09-26T05:18:41.838Z,8.32
2022-09-26T05:21:09.280Z,9.32
2022-09-26T05:23:55.595Z,10.00
2022-09-26T05:26:51.287Z,9.13
2022-09-26T05:29:19.967Z,9.75
2022-09-26T05:31:47.558Z,9.32
2022-09-26T05:34:19.598Z,8.20
2022-09-26T05:36:46.796Z,7.47
2022-09-26T05:39:32.229Z,11.82
2022-09-26T05:41:59.567Z,7.55
2022-09-26T05:44:27.232Z,9.25
2022-09-26T05:46:53.940Z,9.45
2022-09-26T05:49:20.693Z,11.30
2022-09-26T05:51:47.382Z,8.32
2022-09-26T05:54:14.740Z,8.65
2022-09-26T05:56:41.495Z,11.15
2022-09-26T05:59:08.193Z,11.85
2022-09-26T06:01:35.466Z,8.77
2022-09-26T06:04:02.985Z,10.70
2022-09-26T06:06:30.107Z,12.13
2022-09-26T06:08:57.069Z,10.18
2022-09-26T06:11:28.724Z,10.77
2022-09-26T06:13:55.862Z,12.05
2022-09-26T06:16:22.825Z,9.88
2022-09-26T06:18:52.437Z,15.50
2022-09-26T06:21:20.324Z,12.50
2022-09-26T06:23:47.139Z,8.85
2022-09-26T06:26:19.960Z,10.13
2022-09-26T06:28:47.146Z,10.48
2022-09-26T06:31:17.239Z,12.10
2022-09-26T06:33:44.791Z,11.15
2022-09-26T06:36:12.241Z,12.10
2022-09-26T06:38:39.026Z,11.95
2022-09-26T06:41:07.391Z,11.43
2022-09-26T06:43:34.297Z,10.27
2022-09-26T06:46:01.053Z,11.10
2022-09-26T06:48:27.841Z,13.40
2022-09-26T06:50:57.030Z,11.98
2022-09-26T06:53:23.915Z,12.18
2022-09-26T06:55:50.678Z,10.52
2022-09-26T06:58:17.845Z,11.38
2022-09-26T07:00:44.630Z,10.30
2022-09-26T07:03:13.492Z,12.02
2022-09-26T07:05:40.418Z,10.98
2022-09-26T07:08:07.226Z,12.02
2022-09-26T07:10:38.484Z,13.80
2022-09-26T07:13:07.772Z,13.57
2022-09-26T07:15:36.119Z,12.15
2022-09-26T07:18:04.529Z,13.45
2022-09-26T07:20:33.721Z,12.10
2022-09-26T07:23:04.908Z,12.57
2022-09-26T07:25:32.236Z,11.75
2022-09-26T07:27:59.560Z,14.68
2022-09-26T07:30:28.175Z,12.10
2022-09-26T07:33:03.092Z,13.68
2022-09-26T07:35:34.203Z,11.75
2022-09-26T07:38:01.231Z,11.55
2022-09-26T07:40:28.525Z,13.88
2022-09-26T07:43:19.617Z,13.05
2022-09-26T07:46:06.163Z,15.25
2022-09-26T07:48:51.399Z,12.18
2022-09-26T07:51:19.705Z,13.98
2022-09-26T07:53:46.747Z,13.68
2022-09-26T07:56:13.448Z,14.15
2022-09-26T07:58:41.853Z,13.77
2022-09-26T08:01:14.186Z,11.85
2022-09-26T08:03:46.142Z,14.82
2022-09-26T08:06:13.504Z,24.25
2022-09-26T08:08:41.383Z,13.93
2022-09-26T08:11:16.309Z,14.70
2022-09-26T08:13:43.809Z,12.55
2022-09-26T08:16:11.644Z,13.32
2022-09-26T08:18:38.379Z,15.02
2022-09-26T08:21:06.284Z,15.25
2022-09-26T08:23:34.171Z,13.93
2022-09-26T08:26:03.766Z,16.67
2022-09-26T08:28:30.664Z,15.32
2022-09-26T08:31:00.689Z,14.38
2022-09-26T08:33:27.654Z,13.73
2022-09-26T08:35:54.379Z,13.68
2022-09-26T08:38:21.587Z,14.18
2022-09-26T08:41:03.619Z,12.93
2022-09-26T08:43:56.192Z,13.75
2022-09-26T08:46:50.411Z,12.48
2022-09-26T08:49:27.265Z,17.25
2022-09-26T08:51:57.443Z,14.00
2022-09-26T08:54:37.685Z,12.25
2022-09-26T08:57:14.532Z,13.10
2022-09-26T08:59:43.828Z,15.82
2022-09-26T09:02:26.179Z,12.68
2022-09-26T09:04:57.495Z,11.82
2022-09-26T09:07:25.924Z,10.88
2022-09-26T09:09:59.295Z,10.95
2022-09-26T09:12:32.640Z,10.15
2022-09-26T09:15:40.648Z,10.77
2022-09-26T09:18:33.297Z,7.82
2022-09-26T09:21:09.297Z,8.43
2022-09-26T09:24:07.445Z,7.35
2022-09-26T09:30:15.780Z,6.55
2022-09-26T09:32:57.047Z,5.75
2022-09-26T09:35:47.961Z,6.22
2022-09-26T09:38:18.064Z,5.40
2022-09-26T09:40:48.833Z,8.40
2022-09-26T09:43:26.757Z,5.35
2022-09-26T09:45:59.521Z,5.05
2022-09-26T09:48:28.339Z,6.32
2022-09-26T09:51:15.917Z,4.07
2022-09-26T09:54:05.701Z,3.75
2022-09-26T09:57:08.198Z,4.22
2022-09-26T09:59:51.531Z,3.85
2022-09-26T10:02:44.178Z,5.47
2022-09-26T10:05:45.567Z,4.50
2022-09-26T10:08:29.200Z,7.47
2022-09-26T10:11:07.623Z,6.38
2022-09-26T10:13:37.973Z,4.18
2022-09-26T10:16:07.602Z,6.80
2022-09-26T10:18:55.690Z,4.70
2022-09-26T10:21:32.872Z,5.50
2022-09-26T10:24:01.937Z,4.10
2022-09-26T10:26:36.832Z,5.18
2022-09-26T10:29:28.546Z,4.00
2022-09-26T10:31:57.446Z,5.07
2022-09-26T10:34:37.942Z,4.25
2022-09-26T10:37:25.794Z,5.40
2022-09-26T10:40:12.975Z,3.65
2022-09-26T10:42:40.115Z,5.63
2022-09-26T10:45:19.315Z,4.85
2022-09-26T10:47:50.809Z,4.35
2022-09-26T10:50:25.049Z,5.78
2022-09-26T10:53:01.414Z,4.15
2022-09-26T10:55:37.604Z,3.72
2022-09-26T10:58:13.635Z,4.68
2022-09-26T11:00:48.808Z,4.38
2022-09-26T11:03:24.868Z,5.43
2022-09-26T11:05:57.413Z,4.63
2022-09-26T11:08:37.457Z,2.70
2022-09-26T11:11:11.251Z,5.90
2022-09-26T11:14:05.274Z,4.97
2022-09-26T11:16:44.080Z,4.00
2022-09-26T11:19:26.792Z,4.97
2022-09-26T11:22:07.279Z,3.05
2022-09-26T11:24:46.273Z,3.25
2022-09-26T11:27:31.712Z,7.60
2022-09-26T11:30:09.230Z,5.07
2022-09-26T11:35:48.252Z,3.03
2022-09-26T11:38:47.540Z,3.85
2022-09-26T11:41:38.441Z,5.53
2022-09-26T11:44:20.668Z,3.08
2022-09-26T11:47:02.657Z,1.92
2022-09-26T11:50:01.029Z,6.00
2022-09-26T11:53:03.019Z,3.08
2022-09-26T11:55:50.932Z,1.70
2022-09-26T11:58:50.539Z,1.83
2022-09-26T12:01:35.500Z,4.28
2022-09-26T12:06:55.983Z,1.90
2022-09-26T12:09:51.505Z,4.30
2022-09-26T12:12:46.252Z,1.63
2022-09-26T12:15:24.987Z,2.58
2022-09-26T12:18:00.798Z,2.97
2022-09-26T12:20:33.320Z,3.35
2022-09-26T12:23:41.824Z,5.32
2022-09-26T12:26:17.079Z,4.45
2022-09-26T12:29:01.999Z,3.58
2022-09-26T12:34:55.625Z,2.45
2022-09-26T12:37:53.358Z,4.30
2022-09-26T12:41:04.565Z,2.65
2022-09-26T12:44:10.977Z,2.83
2022-09-26T12:46:44.698Z,2.40
2022-09-26T12:49:32.224Z,2.13
2022-09-26T12:52:31.574Z,2.00
2022-09-26T12:55:21.580Z,6.15
2022-09-26T12:57:57.145Z,2.63
2022-09-26T13:00:25.167Z,3.33
2022-09-26T13:03:09.584Z,2.72
2022-09-26T13:05:57.559Z,3.33
2022-09-26T13:08:33.275Z,3.00
2022-09-26T13:11:10.957Z,4.65
2022-09-26T13:13:46.227Z,2.28
2022-09-26T13:16:25.385Z,1.80
2022-09-26T13:18:57.624Z,2.88
2022-09-26T13:21:33.311Z,1.58
2022-09-26T13:24:07.200Z,4.60
2022-09-26T13:26:45.151Z,2.33
2022-09-26T13:29:29.015Z,3.70
2022-09-26T13:32:24.524Z,3.10
2022-09-26T13:35:17.377Z,4.13
2022-09-26T13:38:09.207Z,2.90
2022-09-26T13:40:57.500Z,5.68
2022-09-26T13:43:36.234Z,3.00
2022-09-26T13:49:43.141Z,3.15
2022-09-26T13:52:48.109Z,3.53
2022-09-26T13:55:20.236Z,2.35
2022-09-26T13:58:03.848Z,3.70
2022-09-26T14:00:30.587Z,3.58
2022-09-26T14:03:19.271Z,2.72
2022-09-26T14:05:51.903Z,5.07
2022-09-26T14:08:43.381Z,3.22
2022-09-26T14:11:49.914Z,3.40
2022-09-26T14:14:20.515Z,1.25
2022-09-26T14:16:49.103Z,2.53
2022-09-26T14:19:19.206Z,2.50
2022-09-26T14:22:03.136Z,3.03
2022-09-26T14:24:37.060Z,3.03
2022-09-26T14:27:09.752Z,2.35
2022-09-26T14:29:39.434Z,2.92
2022-09-26T14:32:09.844Z,3.10
2022-09-26T14:35:03.160Z,2.40
2022-09-26T14:37:32.089Z,3.80
2022-09-26T14:40:18.761Z,3.15
2022-09-26T14:42:46.665Z,3.15
2022-09-26T14:45:16.599Z,2.65
2022-09-26T14:47:54.998Z,1.85
2022-09-26T14:50:35.527Z,3.65
2022-09-26T14:53:21.045Z,4.78
2022-09-26T14:55:59.175Z,3.65
2022-09-26T14:58:38.078Z,4.30
2022-09-26T15:01:18.003Z,3.92
2022-09-26T15:04:28.671Z,3.53
2022-09-26T15:07:02.695Z,5.00
2022-09-26T15:09:41.695Z,3.55
2022-09-26T15:12:10.360Z,3.55
2022-09-26T15:14:50.018Z,5.13
2022-09-26T15:17:20.377Z,2.72
2022-09-26T15:19:57.382Z,5.78
2022-09-26T15:22:28.609Z,5.95
2022-09-26T15:25:16.640Z,4.85
2022-09-26T15:27:46.157Z,3.50
2022-09-26T15:30:19.128Z,4.18
2022-09-26T15:32:50.248Z,4.15
2022-09-26T15:35:17.821Z,4.40
2022-09-26T15:37:45.867Z,5.25
2022-09-26T15:40:16.969Z,5.53
2022-09-26T15:42:58.622Z,5.65
2022-09-26T15:45:33.344Z,4.78
2022-09-26T15:48:04.269Z,5.15
2022-09-26T15:50:42.955Z,4.13
2022-09-26T15:56:03.581Z,3.88
2022-09-26T15:58:56.476Z,5.82
2022-09-26T16:01:26.716Z,2.45
2022-09-26T16:04:00.933Z,3.08
2022-09-26T16:06:30.531Z,3.58
2022-09-26T16:09:06.021Z,3.85
2022-09-26T16:11:34.013Z,3.80
2022-09-26T16:14:01.136Z,2.92
2022-09-26T16:16:32.130Z,4.53
2022-09-26T16:19:03.194Z,3.65
2022-09-26T16:21:34.044Z,3.55
2022-09-26T16:24:26.458Z,3.10
2022-09-26T16:26:54.481Z,4.03
2022-09-26T16:29:34.889Z,3.60
2022-09-26T16:32:03.705Z,4.15
2022-09-26T16:34:30.663Z,3.72
2022-09-26T16:36:58.099Z,4.18
2022-09-26T16:39:30.679Z,6.75
2022-09-26T16:42:02.720Z,2.88
2022-09-26T16:44:41.516Z,3.63
2022-09-26T16:47:45.683Z,5.35
2022-09-26T16:50:28.882Z,4.40
2022-09-26T16:52:56.232Z,5.55
2022-09-26T16:55:24.452Z,5.07
2022-09-26T16:58:00.260Z,4.28
2022-09-26T17:00:52.134Z,4.93
2022-09-26T17:03:27.889Z,3.60
2022-09-26T17:05:56.990Z,7.55
2022-09-26T17:08:28.155Z,4.40
2022-09-26T17:10:58.710Z,6.10
2022-09-26T17:13:28.512Z,6.25
2022-09-26T17:15:57.462Z,4.25
2022-09-26T17:18:32.497Z,5.05
2022-09-26T17:21:00.331Z,4.82
2022-09-26T17:23:40.003Z,5.45
2022-09-26T17:26:12.662Z,3.78
2022-09-26T17:28:42.760Z,5.28
2022-09-26T17:31:19.305Z,4.53
2022-09-26T17:33:49.487Z,6.07
2022-09-26T17:36:24.575Z,4.07
2022-09-26T17:38:52.444Z,4.38
2022-09-26T17:41:19.578Z,4.68
2022-09-26T17:43:46.834Z,4.43
2022-09-26T17:46:16.170Z,5.47
2022-09-26T17:48:44.464Z,5.25
2022-09-26T17:51:14.669Z,6.55
2022-09-26T17:53:50.426Z,4.50
2022-09-26T17:56:17.890Z,5.43
2022-09-26T17:58:45.396Z,4.75
2022-09-26T18:01:22.448Z,4.82
2022-09-26T18:03:51.832Z,7.38
2022-09-26T18:06:19.407Z,6.00
2022-09-26T18:08:46.367Z,3.80
2022-09-26T18:11:18.574Z,4.93
2022-09-26T18:13:54.341Z,6.57
2022-09-26T18:16:22.034Z,4.88
2022-09-26T18:18:48.936Z,5.93
2022-09-26T18:21:18.580Z,5.75
2022-09-26T18:23:52.340Z,6.40
2022-09-26T18:26:23.123Z,5.82
2022-09-26T18:28:50.589Z,5.68
2022-09-26T18:31:23.132Z,6.13
2022-09-26T18:33:50.028Z,3.28
2022-09-26T18:36:17.037Z,5.78
2022-09-26T18:38:43.803Z,5.93
2022-09-26T18:41:11.281Z,5.68
2022-09-26T18:43:42.264Z,7.50
2022-09-26T18:46:13.416Z,6.18
2022-09-26T18:48:41.674Z,5.28
2022-09-26T18:51:10.119Z,6.80
2022-09-26T18:53:40.402Z,6.22
2022-09-26T18:56:29.764Z,5.05
2022-09-26T18:58:57.493Z,6.25
2022-09-26T19:01:30.090Z,5.65
2022-09-26T19:04:03.135Z,6.78
2022-09-26T19:06:34.623Z,7.30
2022-09-26T19:09:06.407Z,7.95
2022-09-26T19:11:34.982Z,5.85
2022-09-26T19:14:15.655Z,6.10
2022-09-26T19:16:46.801Z,6.28
2022-09-26T19:19:14.034Z,6.85
2022-09-26T19:21:56.599Z,5.47
2022-09-26T19:24:34.296Z,5.43
2022-09-26T19:27:20.464Z,4.05
2022-09-26T19:30:02.416Z,5.68
2022-09-26T19:32:40.771Z,3.47
2022-09-26T19:35:20.520Z,4.78
2022-09-26T19:37:47.278Z,5.22
2022-09-26T19:40:15.647Z,2.97
2022-09-26T19:42:42.909Z,5.35
2022-09-26T19:45:10.900Z,3.67
2022-09-26T19:47:39.434Z,4.72
2022-09-26T19:50:12.740Z,2.83
2022-09-26T19:52:39.559Z,4.88
2022-09-26T19:55:16.072Z,3.45
2022-09-26T19:57:42.812Z,6.38
2022-09-26T20:00:12.278Z,3.10
2022-09-26T20:02:39.424Z,2.33
2022-09-26T20:05:19.929Z,5.28
2022-09-26T20:07:47.473Z,2.13
2022-09-26T20:10:20.289Z,2.40
2022-09-26T20:12:48.515Z,3.55
2022-09-26T20:15:17.766Z,4.63
2022-09-26T20:17:46.189Z,2.13
2022-09-26T20:20:24.631Z,3.88
2022-09-26T20:22:53.806Z,3.58
2022-09-26T20:25:27.049Z,3.47
2022-09-26T20:27:54.546Z,2.58
2022-09-26T20:30:40.348Z,3.72
2022-09-26T20:33:08.798Z,1.92
2022-09-26T20:35:39.998Z,2.42
2022-09-26T20:38:20.639Z,3.05
2022-09-26T20:40:49.150Z,2.15
2022-09-26T20:43:25.088Z,2.60
2022-09-26T20:45:51.961Z,1.70
2022-09-26T20:48:22.331Z,4.38
2022-09-26T20:50:49.954Z,3.33
2022-09-26T20:53:19.398Z,3.72
2022-09-26T20:55:47.516Z,1.92
2022-09-26T20:58:14.932Z,2.78
2022-09-26T21:00:43.120Z,3.20
2022-09-26T21:03:11.985Z,2.42
2022-09-26T21:05:39.307Z,4.72
2022-09-26T21:08:24.056Z,3.13
2022-09-26T21:10:50.753Z,5.28
2022-09-26T21:13:17.443Z,3.30
2022-09-26T21:15:44.355Z,3.70
2022-09-26T21:18:37.698Z,4.20
2022-09-26T21:21:07.965Z,2.38
2022-09-26T21:23:42.411Z,2.25
2022-09-26T21:26:20.740Z,2.72
2022-09-26T21:28:49.728Z,6.28
2022-09-26T21:31:32.138Z,3.83
2022-09-26T21:34:00.297Z,4.45
2022-09-26T21:36:34.890Z,6.00
2022-09-26T21:39:02.311Z,4.57
2022-09-26T21:41:29.508Z,4.78
2022-09-26T21:44:12.799Z,4.85
2022-09-26T21:46:39.601Z,3.22
2022-09-26T21:49:06.340Z,4.25
2022-09-26T21:51:33.203Z,5.30
2022-09-26T21:54:07.008Z,3.63
2022-09-26T21:56:38.685Z,7.18
2022-09-26T21:59:06.912Z,4.47
2022-09-26T22:01:33.662Z,3.92
2022-09-26T22:04:00.820Z,4.70
2022-09-26T22:06:27.532Z,5.47
2022-09-26T22:08:54.403Z,5.50
2022-09-26T22:11:21.091Z,4.38
2022-09-26T22:13:47.989Z,4.45
2022-09-26T22:16:15.281Z,5.10
2022-09-26T22:18:42.099Z,4.55
2022-09-26T22:21:10.731Z,4.35
2022-09-26T22:23:38.301Z,5.15
2022-09-26T22:26:05.464Z,3.83
2022-09-26T22:28:32.542Z,4.88
2022-09-26T22:31:04.813Z,5.18
2022-09-26T22:33:31.942Z,3.97
2022-09-26T22:35:58.701Z,4.13
2022-09-26T22:38:25.490Z,4.88
2022-09-26T22:40:59.692Z,4.47
2022-09-26T22:43:27.797Z,4.97
2022-09-26T22:46:00.921Z,5.40
2022-09-26T22:48:33.802Z,5.18
2022-09-26T22:51:00.649Z,5.10
2022-09-26T22:53:27.621Z,6.75
2022-09-26T22:55:55.917Z,5.03
2022-09-26T22:58:23.819Z,2.47
2022-09-26T23:00:51.094Z,3.95
2022-09-26T23:03:18.398Z,4.00
2022-09-26T23:05:48.524Z,3.35
2022-09-26T23:08:15.252Z,3.75
2022-09-26T23:10:48.697Z,3.15
2022-09-26T23:13:15.383Z,2.05
2022-09-26T23:15:42.117Z,4.07
2022-09-26T23:18:08.795Z,4.18
2022-09-26T23:20:39.133Z,1.92
2022-09-26T23:23:06.509Z,4.45
2022-09-26T23:25:33.744Z,4.22
2022-09-26T23:28:00.523Z,3.10
2022-09-26T23:30:27.252Z,4.00
2022-09-26T23:32:53.964Z,3.55
2022-09-26T23:35:20.757Z,2.85
2022-09-26T23:37:47.424Z,7.45
2022-09-26T23:40:14.321Z,3.97
2022-09-26T23:42:41.068Z,4.15
2022-09-26T23:45:08.301Z,3.70
2022-09-26T23:47:34.974Z,2.50
2022-09-26T23:50:02.136Z,4.90
2022-09-26T23:52:28.996Z,3.72
2022-09-26T23:54:55.713Z,3.05
2022-09-26T23:57:23.333Z,3.80
2022-09-26T23:59:50.056Z,3.45
